Terminal Aerodrome Forecast
Issued by NWS

Home | Current Version | Previous Version | Text Only | Print | Product List | Glossary On
Versions: 1 2 3 4 5 6 7 8 9 10 11 12 13 14 15 16 17 18 19 20 21 22 23 24 25 26 27 28 29 30
000
FTUS44 KLIX 281200 AAA
TAFHUM
TAF AMD
KHUM 281212Z 2812/2912 24004KT 1/4SM FG VV001
     FM281600 30005KT 5SM SHRA BR OVC005
     FM281800 33007KT P6SM SHRA OVC008
     FM290600 35007KT 4SM BR OVC003=

USA.gov is the U.S. government's official web portal to all federal, state and local government web resources and services.